sensor_id;sensor_type;location;lat;lon;timestamp;P1;durP1;ratioP1;P2;durP2;ratioP2
68653;SDS011;55636;51.108;13.622;2023-07-09T00:00:16;8.48;;;7.65;;
68653;SDS011;55636;51.108;13.622;2023-07-09T00:01:22;8.65;;;7.43;;
68653;SDS011;55636;51.108;13.622;2023-07-09T00:02:25;8.02;;;7.25;;
68653;SDS011;55636;51.108;13.622;2023-07-09T00:03:28;8.15;;;7.35;;
68653;SDS011;55636;51.108;13.622;2023-07-09T00:04:31;8.50;;;7.40;;
68653;SDS011;55636;51.108;13.622;2023-07-09T00:05:35;8.57;;;7.63;;
68653;SDS011;55636;51.108;13.622;2023-07-09T00:06:40;8.35;;;7.40;;
68653;SDS011;55636;51.108;13.622;2023-07-09T00:07:43;8.38;;;7.57;;
68653;SDS011;55636;51.108;13.622;2023-07-09T00:08:47;8.27;;;7.47;;
68653;SDS011;55636;51.108;13.622;2023-07-09T00:09:50;8.65;;;7.85;;
68653;SDS011;55636;51.108;13.622;2023-07-09T00:10:53;9.40;;;7.78;;
68653;SDS011;55636;51.108;13.622;2023-07-09T00:11:57;11.23;;;7.80;;
68653;SDS011;55636;51.108;13.622;2023-07-09T00:13:00;8.20;;;7.40;;
68653;SDS011;55636;51.108;13.622;2023-07-09T00:14:05;8.23;;;7.43;;
68653;SDS011;55636;51.108;13.622;2023-07-09T00:15:10;9.00;;;8.10;;
68653;SDS011;55636;51.108;13.622;2023-07-09T00:16:19;8.68;;;7.78;;
68653;SDS011;55636;51.108;13.622;2023-07-09T00:18:22;8.65;;;7.68;;
68653;SDS011;55636;51.108;13.622;2023-07-09T00:19:25;8.88;;;8.00;;
68653;SDS011;55636;51.108;13.622;2023-07-09T00:20:30;8.60;;;7.70;;
68653;SDS011;55636;51.108;13.622;2023-07-09T00:21:33;8.43;;;7.63;;
68653;SDS011;55636;51.108;13.622;2023-07-09T00:22:36;8.65;;;7.85;;
68653;SDS011;55636;51.108;13.622;2023-07-09T00:23:38;9.93;;;7.80;;
68653;SDS011;55636;51.108;13.622;2023-07-09T00:24:42;8.20;;;7.40;;
68653;SDS011;55636;51.108;13.622;2023-07-09T00:25:49;8.80;;;7.93;;
68653;SDS011;55636;51.108;13.622;2023-07-09T00:26:52;8.50;;;7.65;;
68653;SDS011;55636;51.108;13.622;2023-07-09T00:27:54;8.15;;;7.28;;
68653;SDS011;55636;51.108;13.622;2023-07-09T00:28:58;8.18;;;7.38;;
68653;SDS011;55636;51.108;13.622;2023-07-09T00:30:04;7.65;;;6.95;;
68653;SDS011;55636;51.108;13.622;2023-07-09T00:31:11;8.07;;;7.28;;
68653;SDS011;55636;51.108;13.622;2023-07-09T00:32:17;8.30;;;7.50;;
68653;SDS011;55636;51.108;13.622;2023-07-09T00:33:22;8.27;;;7.43;;
68653;SDS011;55636;51.108;13.622;2023-07-09T00:34:33;8.35;;;7.50;;
68653;SDS011;55636;51.108;13.622;2023-07-09T00:35:36;9.35;;;7.57;;
68653;SDS011;55636;51.108;13.622;2023-07-09T00:36:38;9.10;;;7.50;;
68653;SDS011;55636;51.108;13.622;2023-07-09T00:37:43;8.40;;;7.45;;
68653;SDS011;55636;51.108;13.622;2023-07-09T00:38:46;8.07;;;7.30;;
68653;SDS011;55636;51.108;13.622;2023-07-09T00:39:50;8.40;;;7.60;;
68653;SDS011;55636;51.108;13.622;2023-07-09T00:41:01;8.38;;;7.55;;
68653;SDS011;55636;51.108;13.622;2023-07-09T00:42:06;8.05;;;7.25;;
68653;SDS011;55636;51.108;13.622;2023-07-09T00:43:15;9.55;;;7.70;;
68653;SDS011;55636;51.108;13.622;2023-07-09T00:44:31;7.97;;;7.18;;
68653;SDS011;55636;51.108;13.622;2023-07-09T00:45:35;8.45;;;7.65;;
68653;SDS011;55636;51.108;13.622;2023-07-09T00:47:54;8.27;;;7.35;;
68653;SDS011;55636;51.108;13.622;2023-07-09T00:49:05;10.07;;;7.80;;
68653;SDS011;55636;51.108;13.622;2023-07-09T00:51:33;8.48;;;7.68;;
68653;SDS011;55636;51.108;13.622;2023-07-09T00:52:57;8.43;;;7.55;;
68653;SDS011;55636;51.108;13.622;2023-07-09T00:54:22;9.02;;;7.80;;
68653;SDS011;55636;51.108;13.622;2023-07-09T00:55:50;8.15;;;7.35;;
68653;SDS011;55636;51.108;13.622;2023-07-09T00:57:00;8.90;;;7.88;;
68653;SDS011;55636;51.108;13.622;2023-07-09T00:58:09;8.98;;;8.00;;
68653;SDS011;55636;51.108;13.622;2023-07-09T00:59:20;8.48;;;7.68;;
68653;SDS011;55636;51.108;13.622;2023-07-09T01:00:31;8.80;;;7.88;;
68653;SDS011;55636;51.108;13.622;2023-07-09T01:01:40;9.30;;;8.32;;
68653;SDS011;55636;51.108;13.622;2023-07-09T01:02:45;8.57;;;7.75;;
68653;SDS011;55636;51.108;13.622;2023-07-09T01:03:52;9.80;;;8.07;;
68653;SDS011;55636;51.108;13.622;2023-07-09T01:05:01;8.80;;;7.90;;
68653;SDS011;55636;51.108;13.622;2023-07-09T01:06:04;9.15;;;7.97;;
68653;SDS011;55636;51.108;13.622;2023-07-09T01:07:07;8.63;;;7.55;;
68653;SDS011;55636;51.108;13.622;2023-07-09T01:08:10;10.10;;;8.55;;
68653;SDS011;55636;51.108;13.622;2023-07-09T01:09:14;9.43;;;8.52;;
68653;SDS011;55636;51.108;13.622;2023-07-09T01:10:17;9.02;;;8.23;;
68653;SDS011;55636;51.108;13.622;2023-07-09T01:11:21;9.50;;;8.57;;
68653;SDS011;55636;51.108;13.622;2023-07-09T01:12:24;9.70;;;8.15;;
68653;SDS011;55636;51.108;13.622;2023-07-09T01:13:27;9.27;;;8.13;;
68653;SDS011;55636;51.108;13.622;2023-07-09T01:14:37;9.32;;;8.07;;
68653;SDS011;55636;51.108;13.622;2023-07-09T01:15:40;9.23;;;8.18;;
68653;SDS011;55636;51.108;13.622;2023-07-09T01:16:44;9.13;;;8.20;;
68653;SDS011;55636;51.108;13.622;2023-07-09T01:18:00;11.55;;;8.93;;
68653;SDS011;55636;51.108;13.622;2023-07-09T01:19:06;9.30;;;8.38;;
68653;SDS011;55636;51.108;13.622;2023-07-09T01:20:14;9.05;;;8.10;;
68653;SDS011;55636;51.108;13.622;2023-07-09T01:21:23;9.43;;;8.40;;
68653;SDS011;55636;51.108;13.622;2023-07-09T01:22:26;9.02;;;8.10;;
68653;SDS011;55636;51.108;13.622;2023-07-09T01:23:29;10.73;;;8.18;;
68653;SDS011;55636;51.108;13.622;2023-07-09T01:26:05;8.80;;;8.00;;
68653;SDS011;55636;51.108;13.622;2023-07-09T01:27:10;8.73;;;7.82;;
68653;SDS011;55636;51.108;13.622;2023-07-09T01:28:13;8.77;;;7.80;;
68653;SDS011;55636;51.108;13.622;2023-07-09T01:29:15;9.18;;;8.18;;
68653;SDS011;55636;51.108;13.622;2023-07-09T01:30:21;8.88;;;8.02;;
68653;SDS011;55636;51.108;13.622;2023-07-09T01:31:26;8.15;;;7.35;;
68653;SDS011;55636;51.108;13.622;2023-07-09T01:32:29;8.70;;;7.80;;
68653;SDS011;55636;51.108;13.622;2023-07-09T01:33:31;8.30;;;7.47;;
68653;SDS011;55636;51.108;13.622;2023-07-09T01:34:34;8.90;;;8.02;;
68653;SDS011;55636;51.108;13.622;2023-07-09T01:35:39;8.32;;;7.50;;
68653;SDS011;55636;51.108;13.622;2023-07-09T01:36:43;9.70;;;7.97;;
68653;SDS011;55636;51.108;13.622;2023-07-09T01:37:46;8.45;;;7.55;;
68653;SDS011;55636;51.108;13.622;2023-07-09T01:38:51;9.68;;;7.63;;
68653;SDS011;55636;51.108;13.622;2023-07-09T01:39:55;8.05;;;7.35;;
68653;SDS011;55636;51.108;13.622;2023-07-09T01:40:58;7.80;;;7.00;;
68653;SDS011;55636;51.108;13.622;2023-07-09T01:42:02;8.50;;;7.60;;
68653;SDS011;55636;51.108;13.622;2023-07-09T01:43:08;8.32;;;7.57;;
68653;SDS011;55636;51.108;13.622;2023-07-09T01:44:10;8.00;;;7.20;;
68653;SDS011;55636;51.108;13.622;2023-07-09T01:45:13;10.00;;;7.90;;
68653;SDS011;55636;51.108;13.622;2023-07-09T01:46:18;8.30;;;7.35;;
68653;SDS011;55636;51.108;13.622;2023-07-09T01:47:22;8.05;;;7.25;;
68653;SDS011;55636;51.108;13.622;2023-07-09T01:48:27;8.38;;;7.57;;
68653;SDS011;55636;51.108;13.622;2023-07-09T01:49:30;8.27;;;7.47;;
68653;SDS011;55636;51.108;13.622;2023-07-09T01:50:34;8.50;;;7.50;;
68653;SDS011;55636;51.108;13.622;2023-07-09T01:51:37;8.23;;;7.43;;
68653;SDS011;55636;51.108;13.622;2023-07-09T01:52:42;8.82;;;7.25;;
68653;SDS011;55636;51.108;13.622;2023-07-09T01:53:46;9.02;;;7.63;;
68653;SDS011;55636;51.108;13.622;2023-07-09T01:54:48;8.27;;;7.47;;
68653;SDS011;55636;51.108;13.622;2023-07-09T01:55:51;8.52;;;7.63;;
68653;SDS011;55636;51.108;13.622;2023-07-09T01:57:11;7.70;;;7.00;;
68653;SDS011;55636;51.108;13.622;2023-07-09T01:58:21;8.18;;;7.38;;
68653;SDS011;55636;51.108;13.622;2023-07-09T01:59:27;8.18;;;7.43;;
68653;SDS011;55636;51.108;13.622;2023-07-09T02:00:29;8.18;;;7.47;;
68653;SDS011;55636;51.108;13.622;2023-07-09T02:01:32;7.88;;;7.07;;
68653;SDS011;55636;51.108;13.622;2023-07-09T02:02:36;8.18;;;7.38;;
68653;SDS011;55636;51.108;13.622;2023-07-09T02:03:45;7.90;;;7.10;;
68653;SDS011;55636;51.108;13.622;2023-07-09T02:04:48;9.68;;;7.13;;
68653;SDS011;55636;51.108;13.622;2023-07-09T02:05:53;7.95;;;6.78;;
68653;SDS011;55636;51.108;13.622;2023-07-09T02:06:56;8.23;;;7.43;;
68653;SDS011;55636;51.108;13.622;2023-07-09T02:07:59;8.15;;;7.35;;
68653;SDS011;55636;51.108;13.622;2023-07-09T02:09:04;8.18;;;7.38;;
68653;SDS011;55636;51.108;13.622;2023-07-09T02:10:07;8.23;;;7.50;;
68653;SDS011;55636;51.108;13.622;2023-07-09T02:11:10;8.15;;;7.35;;
68653;SDS011;55636;51.108;13.622;2023-07-09T02:12:13;9.05;;;7.70;;
68653;SDS011;55636;51.108;13.622;2023-07-09T02:13:17;8.65;;;7.28;;
68653;SDS011;55636;51.108;13.622;2023-07-09T02:14:19;7.63;;;6.90;;
68653;SDS011;55636;51.108;13.622;2023-07-09T02:15:22;8.10;;;7.30;;
68653;SDS011;55636;51.108;13.622;2023-07-09T02:16:26;8.77;;;7.28;;
68653;SDS011;55636;51.108;13.622;2023-07-09T02:17:29;8.02;;;7.22;;
68653;SDS011;55636;51.108;13.622;2023-07-09T02:18:31;8.00;;;7.10;;
68653;SDS011;55636;51.108;13.622;2023-07-09T02:19:35;9.05;;;7.25;;
68653;SDS011;55636;51.108;13.622;2023-07-09T02:20:37;7.93;;;7.13;;
68653;SDS011;55636;51.108;13.622;2023-07-09T02:21:40;7.68;;;6.97;;
68653;SDS011;55636;51.108;13.622;2023-07-09T02:22:42;8.60;;;6.80;;
68653;SDS011;55636;51.108;13.622;2023-07-09T02:23:45;8.27;;;7.47;;
68653;SDS011;55636;51.108;13.622;2023-07-09T02:24:47;7.80;;;7.00;;
68653;SDS011;55636;51.108;13.622;2023-07-09T02:25:50;8.18;;;7.32;;
68653;SDS011;55636;51.108;13.622;2023-07-09T02:26:54;7.63;;;6.88;;
68653;SDS011;55636;51.108;13.622;2023-07-09T02:28:01;7.47;;;6.78;;
68653;SDS011;55636;51.108;13.622;2023-07-09T02:29:03;7.60;;;6.78;;
68653;SDS011;55636;51.108;13.622;2023-07-09T02:30:05;8.98;;;6.90;;
68653;SDS011;55636;51.108;13.622;2023-07-09T02:31:09;7.28;;;6.57;;
68653;SDS011;55636;51.108;13.622;2023-07-09T02:32:13;7.47;;;6.78;;
68653;SDS011;55636;51.108;13.622;2023-07-09T02:33:21;7.43;;;6.72;;
68653;SDS011;55636;51.108;13.622;2023-07-09T02:34:24;8.10;;;6.97;;
68653;SDS011;55636;51.108;13.622;2023-07-09T02:35:27;7.60;;;6.80;;
68653;SDS011;55636;51.108;13.622;2023-07-09T02:36:30;7.00;;;6.40;;
68653;SDS011;55636;51.108;13.622;2023-07-09T02:37:32;7.30;;;6.60;;
68653;SDS011;55636;51.108;13.622;2023-07-09T02:38:36;7.53;;;6.80;;
68653;SDS011;55636;51.108;13.622;2023-07-09T02:39:39;7.25;;;6.60;;
68653;SDS011;55636;51.108;13.622;2023-07-09T02:40:42;7.68;;;6.90;;
68653;SDS011;55636;51.108;13.622;2023-07-09T02:41:45;10.00;;;6.90;;
68653;SDS011;55636;51.108;13.622;2023-07-09T02:42:48;7.10;;;6.40;;
68653;SDS011;55636;51.108;13.622;2023-07-09T02:43:52;7.35;;;6.35;;
68653;SDS011;55636;51.108;13.622;2023-07-09T02:44:55;7.35;;;6.60;;
68653;SDS011;55636;51.108;13.622;2023-07-09T02:45:59;7.15;;;6.50;;
68653;SDS011;55636;51.108;13.622;2023-07-09T02:47:02;7.90;;;6.90;;
68653;SDS011;55636;51.108;13.622;2023-07-09T02:48:05;6.72;;;6.13;;
68653;SDS011;55636;51.108;13.622;2023-07-09T02:49:13;7.50;;;6.80;;
68653;SDS011;55636;51.108;13.622;2023-07-09T02:50:16;7.78;;;6.65;;
68653;SDS011;55636;51.108;13.622;2023-07-09T02:51:19;7.32;;;6.60;;
68653;SDS011;55636;51.108;13.622;2023-07-09T02:52:21;6.95;;;6.30;;
68653;SDS011;55636;51.108;13.622;2023-07-09T02:53:23;7.63;;;6.95;;
68653;SDS011;55636;51.108;13.622;2023-07-09T02:54:26;7.15;;;6.45;;
68653;SDS011;55636;51.108;13.622;2023-07-09T02:55:28;7.35;;;6.50;;
68653;SDS011;55636;51.108;13.622;2023-07-09T02:56:32;7.05;;;6.25;;
68653;SDS011;55636;51.108;13.622;2023-07-09T02:57:34;7.20;;;6.50;;
68653;SDS011;55636;51.108;13.622;2023-07-09T02:58:36;7.93;;;6.63;;
68653;SDS011;55636;51.108;13.622;2023-07-09T02:59:39;7.88;;;6.35;;
68653;SDS011;55636;51.108;13.622;2023-07-09T03:00:41;6.63;;;6.03;;
68653;SDS011;55636;51.108;13.622;2023-07-09T03:01:44;6.93;;;6.22;;
68653;SDS011;55636;51.108;13.622;2023-07-09T03:02:48;8.77;;;6.35;;
68653;SDS011;55636;51.108;13.622;2023-07-09T03:03:52;6.88;;;6.28;;
68653;SDS011;55636;51.108;13.622;2023-07-09T03:04:57;7.82;;;6.55;;
68653;SDS011;55636;51.108;13.622;2023-07-09T03:06:00;6.93;;;6.22;;
68653;SDS011;55636;51.108;13.622;2023-07-09T03:07:03;7.43;;;6.68;;
68653;SDS011;55636;51.108;13.622;2023-07-09T03:08:06;6.90;;;6.22;;
68653;SDS011;55636;51.108;13.622;2023-07-09T03:09:09;8.10;;;6.18;;
68653;SDS011;55636;51.108;13.622;2023-07-09T03:10:12;6.90;;;6.20;;
68653;SDS011;55636;51.108;13.622;2023-07-09T03:11:15;6.88;;;6.20;;
68653;SDS011;55636;51.108;13.622;2023-07-09T03:12:18;7.55;;;6.30;;
68653;SDS011;55636;51.108;13.622;2023-07-09T03:13:21;7.30;;;6.60;;
68653;SDS011;55636;51.108;13.622;2023-07-09T03:14:25;7.63;;;6.75;;
68653;SDS011;55636;51.108;13.622;2023-07-09T03:15:27;8.18;;;6.50;;
68653;SDS011;55636;51.108;13.622;2023-07-09T03:16:32;7.07;;;6.38;;
68653;SDS011;55636;51.108;13.622;2023-07-09T03:17:35;6.88;;;6.20;;
68653;SDS011;55636;51.108;13.622;2023-07-09T03:18:38;6.97;;;6.28;;
68653;SDS011;55636;51.108;13.622;2023-07-09T03:19:41;7.30;;;6.57;;
68653;SDS011;55636;51.108;13.622;2023-07-09T03:20:43;8.05;;;6.32;;
68653;SDS011;55636;51.108;13.622;2023-07-09T03:21:46;6.50;;;6.00;;
68653;SDS011;55636;51.108;13.622;2023-07-09T03:22:48;7.22;;;6.53;;
68653;SDS011;55636;51.108;13.622;2023-07-09T03:23:51;7.40;;;6.70;;
68653;SDS011;55636;51.108;13.622;2023-07-09T03:24:55;7.47;;;5.90;;
68653;SDS011;55636;51.108;13.622;2023-07-09T03:25:57;7.20;;;6.50;;
68653;SDS011;55636;51.108;13.622;2023-07-09T03:27:02;7.72;;;6.50;;
68653;SDS011;55636;51.108;13.622;2023-07-09T03:28:05;7.20;;;6.50;;
68653;SDS011;55636;51.108;13.622;2023-07-09T03:29:07;7.68;;;6.53;;
68653;SDS011;55636;51.108;13.622;2023-07-09T03:30:10;7.20;;;6.50;;
68653;SDS011;55636;51.108;13.622;2023-07-09T03:31:12;6.38;;;5.88;;
68653;SDS011;55636;51.108;13.622;2023-07-09T03:32:15;7.38;;;6.68;;
68653;SDS011;55636;51.108;13.622;2023-07-09T03:33:18;7.00;;;6.22;;
68653;SDS011;55636;51.108;13.622;2023-07-09T03:34:20;7.28;;;6.18;;
68653;SDS011;55636;51.108;13.622;2023-07-09T03:35:23;7.32;;;6.63;;
68653;SDS011;55636;51.108;13.622;2023-07-09T03:36:25;6.13;;;5.60;;
68653;SDS011;55636;51.108;13.622;2023-07-09T03:37:29;6.80;;;6.10;;
68653;SDS011;55636;51.108;13.622;2023-07-09T03:38:31;6.72;;;6.10;;
68653;SDS011;55636;51.108;13.622;2023-07-09T03:39:34;6.95;;;6.25;;
68653;SDS011;55636;51.108;13.622;2023-07-09T03:40:37;7.70;;;6.10;;
68653;SDS011;55636;51.108;13.622;2023-07-09T03:41:41;6.82;;;6.03;;
68653;SDS011;55636;51.108;13.622;2023-07-09T03:42:43;6.57;;;5.72;;
68653;SDS011;55636;51.108;13.622;2023-07-09T03:43:46;6.82;;;6.13;;
68653;SDS011;55636;51.108;13.622;2023-07-09T03:44:48;6.53;;;5.88;;
68653;SDS011;55636;51.108;13.622;2023-07-09T03:45:51;7.70;;;6.47;;
68653;SDS011;55636;51.108;13.622;2023-07-09T03:46:53;6.95;;;6.25;;
68653;SDS011;55636;51.108;13.622;2023-07-09T03:47:56;7.05;;;6.13;;
68653;SDS011;55636;51.108;13.622;2023-07-09T03:48:58;6.43;;;5.82;;
68653;SDS011;55636;51.108;13.622;2023-07-09T03:50:01;7.00;;;6.30;;
68653;SDS011;55636;51.108;13.622;2023-07-09T03:51:04;6.60;;;5.90;;
68653;SDS011;55636;51.108;13.622;2023-07-09T03:52:06;6.65;;;5.95;;
68653;SDS011;55636;51.108;13.622;2023-07-09T03:53:09;7.07;;;6.38;;
68653;SDS011;55636;51.108;13.622;2023-07-09T03:54:11;6.93;;;6.18;;
68653;SDS011;55636;51.108;13.622;2023-07-09T03:55:14;7.32;;;6.25;;
68653;SDS011;55636;51.108;13.622;2023-07-09T03:56:16;6.55;;;5.78;;
68653;SDS011;55636;51.108;13.622;2023-07-09T03:57:19;6.55;;;5.63;;
68653;SDS011;55636;51.108;13.622;2023-07-09T03:58:23;6.40;;;5.80;;
68653;SDS011;55636;51.108;13.622;2023-07-09T03:59:26;6.85;;;6.15;;
68653;SDS011;55636;51.108;13.622;2023-07-09T04:00:28;6.40;;;5.80;;
68653;SDS011;55636;51.108;13.622;2023-07-09T04:01:31;6.13;;;5.53;;
68653;SDS011;55636;51.108;13.622;2023-07-09T04:02:33;6.20;;;5.60;;
68653;SDS011;55636;51.108;13.622;2023-07-09T04:03:36;7.10;;;5.50;;
68653;SDS011;55636;51.108;13.622;2023-07-09T04:04:38;6.45;;;5.75;;
68653;SDS011;55636;51.108;13.622;2023-07-09T04:05:41;6.80;;;5.70;;
68653;SDS011;55636;51.108;13.622;2023-07-09T04:06:44;6.63;;;5.80;;
68653;SDS011;55636;51.108;13.622;2023-07-09T04:07:47;6.80;;;6.20;;
68653;SDS011;55636;51.108;13.622;2023-07-09T04:08:49;6.05;;;5.45;;
68653;SDS011;55636;51.108;13.622;2023-07-09T04:09:51;6.13;;;5.53;;
68653;SDS011;55636;51.108;13.622;2023-07-09T04:10:54;5.93;;;5.20;;
68653;SDS011;55636;51.108;13.622;2023-07-09T04:12:00;6.18;;;5.68;;
68653;SDS011;55636;51.108;13.622;2023-07-09T04:13:05;6.43;;;5.82;;
68653;SDS011;55636;51.108;13.622;2023-07-09T04:14:07;7.35;;;6.07;;
68653;SDS011;55636;51.108;13.622;2023-07-09T04:15:10;6.20;;;5.60;;
68653;SDS011;55636;51.108;13.622;2023-07-09T04:16:14;6.15;;;5.55;;
68653;SDS011;55636;51.108;13.622;2023-07-09T04:17:17;6.15;;;5.55;;
68653;SDS011;55636;51.108;13.622;2023-07-09T04:18:19;6.53;;;5.82;;
68653;SDS011;55636;51.108;13.622;2023-07-09T04:19:22;6.50;;;5.85;;
68653;SDS011;55636;51.108;13.622;2023-07-09T04:20:24;7.10;;;5.95;;
68653;SDS011;55636;51.108;13.622;2023-07-09T04:21:26;6.80;;;6.10;;
68653;SDS011;55636;51.108;13.622;2023-07-09T04:22:29;6.03;;;5.53;;
68653;SDS011;55636;51.108;13.622;2023-07-09T04:23:31;7.25;;;5.95;;
68653;SDS011;55636;51.108;13.622;2023-07-09T04:24:34;5.82;;;5.28;;
68653;SDS011;55636;51.108;13.622;2023-07-09T04:25:36;6.72;;;5.63;;
68653;SDS011;55636;51.108;13.622;2023-07-09T04:26:40;6.25;;;5.40;;
68653;SDS011;55636;51.108;13.622;2023-07-09T04:27:42;6.15;;;5.60;;
68653;SDS011;55636;51.108;13.622;2023-07-09T04:28:44;6.20;;;5.68;;
68653;SDS011;55636;51.108;13.622;2023-07-09T04:29:47;7.03;;;5.80;;
68653;SDS011;55636;51.108;13.622;2023-07-09T04:30:50;6.65;;;6.05;;
68653;SDS011;55636;51.108;13.622;2023-07-09T04:31:53;6.25;;;5.65;;
68653;SDS011;55636;51.108;13.622;2023-07-09T04:32:56;5.80;;;5.30;;
68653;SDS011;55636;51.108;13.622;2023-07-09T04:33:59;6.68;;;6.07;;
68653;SDS011;55636;51.108;13.622;2023-07-09T04:35:02;7.15;;;6.30;;
68653;SDS011;55636;51.108;13.622;2023-07-09T04:36:07;6.40;;;5.80;;
68653;SDS011;55636;51.108;13.622;2023-07-09T04:37:11;5.90;;;5.40;;
68653;SDS011;55636;51.108;13.622;2023-07-09T04:38:14;7.95;;;5.90;;
68653;SDS011;55636;51.108;13.622;2023-07-09T04:39:18;6.40;;;5.80;;
68653;SDS011;55636;51.108;13.622;2023-07-09T04:40:20;6.35;;;5.75;;
68653;SDS011;55636;51.108;13.622;2023-07-09T04:41:23;6.60;;;6.00;;
68653;SDS011;55636;51.108;13.622;2023-07-09T04:42:25;6.47;;;5.85;;
68653;SDS011;55636;51.108;13.622;2023-07-09T04:43:28;6.47;;;5.80;;
68653;SDS011;55636;51.108;13.622;2023-07-09T04:44:30;6.90;;;5.97;;
68653;SDS011;55636;51.108;13.622;2023-07-09T04:45:33;6.32;;;5.72;;
68653;SDS011;55636;51.108;13.622;2023-07-09T04:46:36;6.75;;;6.15;;
68653;SDS011;55636;51.108;13.622;2023-07-09T04:47:39;6.88;;;6.20;;
68653;SDS011;55636;51.108;13.622;2023-07-09T04:48:41;6.53;;;5.85;;
68653;SDS011;55636;51.108;13.622;2023-07-09T04:49:44;6.53;;;5.93;;
68653;SDS011;55636;51.108;13.622;2023-07-09T04:50:46;6.10;;;5.60;;
68653;SDS011;55636;51.108;13.622;2023-07-09T04:51:52;6.72;;;6.10;;
68653;SDS011;55636;51.108;13.622;2023-07-09T04:52:54;7.85;;;6.10;;
68653;SDS011;55636;51.108;13.622;2023-07-09T04:53:58;6.72;;;6.10;;
68653;SDS011;55636;51.108;13.622;2023-07-09T04:55:00;6.80;;;6.10;;
68653;SDS011;55636;51.108;13.622;2023-07-09T04:56:03;6.88;;;6.15;;
68653;SDS011;55636;51.108;13.622;2023-07-09T04:57:06;6.22;;;5.63;;
68653;SDS011;55636;51.108;13.622;2023-07-09T04:58:09;7.03;;;6.18;;
68653;SDS011;55636;51.108;13.622;2023-07-09T04:59:11;6.90;;;6.07;;
68653;SDS011;55636;51.108;13.622;2023-07-09T05:00:14;7.85;;;5.95;;
68653;SDS011;55636;51.108;13.622;2023-07-09T05:01:17;6.78;;;6.07;;
68653;SDS011;55636;51.108;13.622;2023-07-09T05:02:19;6.65;;;5.97;;
68653;SDS011;55636;51.108;13.622;2023-07-09T05:03:22;8.10;;;6.38;;
68653;SDS011;55636;51.108;13.622;2023-07-09T05:04:24;8.88;;;6.70;;
68653;SDS011;55636;51.108;13.622;2023-07-09T05:05:27;6.65;;;6.05;;
68653;SDS011;55636;51.108;13.622;2023-07-09T05:06:29;6.50;;;5.90;;
68653;SDS011;55636;51.108;13.622;2023-07-09T05:07:32;7.45;;;6.75;;
68653;SDS011;55636;51.108;13.622;2023-07-09T05:08:35;6.95;;;6.25;;
68653;SDS011;55636;51.108;13.622;2023-07-09T05:09:37;8.30;;;6.00;;
68653;SDS011;55636;51.108;13.622;2023-07-09T05:10:40;6.90;;;6.20;;
68653;SDS011;55636;51.108;13.622;2023-07-09T05:11:46;6.55;;;5.95;;
68653;SDS011;55636;51.108;13.622;2023-07-09T05:12:50;6.15;;;5.65;;
68653;SDS011;55636;51.108;13.622;2023-07-09T05:13:54;6.63;;;5.93;;
68653;SDS011;55636;51.108;13.622;2023-07-09T05:14:57;7.15;;;6.20;;
68653;SDS011;55636;51.108;13.622;2023-07-09T05:15:59;7.60;;;6.50;;
68653;SDS011;55636;51.108;13.622;2023-07-09T05:17:02;6.18;;;5.60;;
68653;SDS011;55636;51.108;13.622;2023-07-09T05:18:06;6.50;;;5.90;;
68653;SDS011;55636;51.108;13.622;2023-07-09T05:19:10;6.32;;;5.78;;
68653;SDS011;55636;51.108;13.622;2023-07-09T05:20:13;6.93;;;6.32;;
68653;SDS011;55636;51.108;13.622;2023-07-09T05:21:16;6.38;;;5.78;;
68653;SDS011;55636;51.108;13.622;2023-07-09T05:22:19;6.90;;;6.03;;
68653;SDS011;55636;51.108;13.622;2023-07-09T05:23:23;6.90;;;6.20;;
68653;SDS011;55636;51.108;13.622;2023-07-09T05:24:27;6.43;;;5.82;;
68653;SDS011;55636;51.108;13.622;2023-07-09T05:25:29;6.30;;;5.70;;
68653;SDS011;55636;51.108;13.622;2023-07-09T05:26:32;6.47;;;5.88;;
68653;SDS011;55636;51.108;13.622;2023-07-09T05:27:34;6.10;;;5.47;;
68653;SDS011;55636;51.108;13.622;2023-07-09T05:28:37;6.68;;;6.07;;
68653;SDS011;55636;51.108;13.622;2023-07-09T05:29:39;6.03;;;5.50;;
68653;SDS011;55636;51.108;13.622;2023-07-09T05:30:42;6.15;;;5.55;;
68653;SDS011;55636;51.108;13.622;2023-07-09T05:31:44;6.55;;;6.00;;
68653;SDS011;55636;51.108;13.622;2023-07-09T05:32:47;6.90;;;6.20;;
68653;SDS011;55636;51.108;13.622;2023-07-09T05:33:50;6.70;;;5.93;;
68653;SDS011;55636;51.108;13.622;2023-07-09T05:34:53;6.40;;;5.80;;
68653;SDS011;55636;51.108;13.622;2023-07-09T05:35:55;6.05;;;5.55;;
68653;SDS011;55636;51.108;13.622;2023-07-09T05:36:58;6.45;;;5.85;;
68653;SDS011;55636;51.108;13.622;2023-07-09T05:38:02;6.15;;;5.60;;
68653;SDS011;55636;51.108;13.622;2023-07-09T05:39:05;6.57;;;5.97;;
68653;SDS011;55636;51.108;13.622;2023-07-09T05:40:07;6.55;;;5.95;;
68653;SDS011;55636;51.108;13.622;2023-07-09T05:41:11;6.63;;;6.03;;
68653;SDS011;55636;51.108;13.622;2023-07-09T05:42:13;6.00;;;5.50;;
68653;SDS011;55636;51.108;13.622;2023-07-09T05:43:16;7.18;;;5.90;;
68653;SDS011;55636;51.108;13.622;2023-07-09T05:44:19;6.38;;;5.78;;
68653;SDS011;55636;51.108;13.622;2023-07-09T05:45:22;6.20;;;5.70;;
68653;SDS011;55636;51.108;13.622;2023-07-09T05:46:25;6.20;;;5.60;;
68653;SDS011;55636;51.108;13.622;2023-07-09T05:47:28;6.70;;;6.10;;
68653;SDS011;55636;51.108;13.622;2023-07-09T05:48:31;8.48;;;5.85;;
68653;SDS011;55636;51.108;13.622;2023-07-09T05:49:33;6.68;;;5.97;;
68653;SDS011;55636;51.108;13.622;2023-07-09T05:50:35;6.32;;;5.63;;
68653;SDS011;55636;51.108;13.622;2023-07-09T05:51:38;5.97;;;5.47;;
68653;SDS011;55636;51.108;13.622;2023-07-09T05:52:42;6.00;;;5.50;;
68653;SDS011;55636;51.108;13.622;2023-07-09T05:53:44;6.20;;;5.60;;
68653;SDS011;55636;51.108;13.622;2023-07-09T05:54:48;6.20;;;5.60;;
68653;SDS011;55636;51.108;13.622;2023-07-09T05:55:54;5.68;;;5.18;;
68653;SDS011;55636;51.108;13.622;2023-07-09T05:56:57;7.28;;;5.70;;
68653;SDS011;55636;51.108;13.622;2023-07-09T05:57:59;5.85;;;5.28;;
68653;SDS011;55636;51.108;13.622;2023-07-09T05:59:02;5.82;;;5.32;;
68653;SDS011;55636;51.108;13.622;2023-07-09T06:00:04;6.15;;;5.55;;
68653;SDS011;55636;51.108;13.622;2023-07-09T06:01:14;5.90;;;5.40;;
68653;SDS011;55636;51.108;13.622;2023-07-09T06:02:17;6.03;;;5.50;;
68653;SDS011;55636;51.108;13.622;2023-07-09T06:03:22;8.02;;;5.82;;
68653;SDS011;55636;51.108;13.622;2023-07-09T06:04:27;6.15;;;5.60;;
68653;SDS011;55636;51.108;13.622;2023-07-09T06:05:29;6.30;;;5.80;;
68653;SDS011;55636;51.108;13.622;2023-07-09T06:06:32;5.97;;;5.47;;
68653;SDS011;55636;51.108;13.622;2023-07-09T06:07:35;6.50;;;5.90;;
68653;SDS011;55636;51.108;13.622;2023-07-09T06:08:37;6.05;;;5.53;;
68653;SDS011;55636;51.108;13.622;2023-07-09T06:09:41;6.25;;;5.75;;
68653;SDS011;55636;51.108;13.622;2023-07-09T06:10:53;6.22;;;5.63;;
68653;SDS011;55636;51.108;13.622;2023-07-09T06:12:01;6.50;;;5.95;;
68653;SDS011;55636;51.108;13.622;2023-07-09T06:13:04;6.72;;;6.13;;
68653;SDS011;55636;51.108;13.622;2023-07-09T06:14:06;6.72;;;6.13;;
68653;SDS011;55636;51.108;13.622;2023-07-09T06:15:09;6.60;;;6.10;;
68653;SDS011;55636;51.108;13.622;2023-07-09T06:16:12;6.22;;;5.63;;
68653;SDS011;55636;51.108;13.622;2023-07-09T06:17:15;6.95;;;6.30;;
68653;SDS011;55636;51.108;13.622;2023-07-09T06:18:18;7.38;;;6.20;;
68653;SDS011;55636;51.108;13.622;2023-07-09T06:19:21;7.20;;;6.50;;
68653;SDS011;55636;51.108;13.622;2023-07-09T06:20:24;7.05;;;6.40;;
68653;SDS011;55636;51.108;13.622;2023-07-09T06:21:26;6.88;;;6.18;;
68653;SDS011;55636;51.108;13.622;2023-07-09T06:22:29;6.93;;;6.32;;
68653;SDS011;55636;51.108;13.622;2023-07-09T06:23:32;7.03;;;6.38;;